sensor_id;sensor_type;location;lat;lon;timestamp;temperature;humidity
15298;DHT22;7750;48.796;9.026;2022-12-18T00:03:05;-4.20;60.70
15298;DHT22;7750;48.796;9.026;2022-12-18T00:08:05;-4.30;60.60
15298;DHT22;7750;48.796;9.026;2022-12-18T00:13:06;-4.40;60.50
15298;DHT22;7750;48.796;9.026;2022-12-18T00:18:07;-4.40;60.50
15298;DHT22;7750;48.796;9.026;2022-12-18T00:23:08;-4.50;60.50
15298;DHT22;7750;48.796;9.026;2022-12-18T00:28:09;-4.50;60.50
15298;DHT22;7750;48.796;9.026;2022-12-18T00:33:09;-4.60;60.50
15298;DHT22;7750;48.796;9.026;2022-12-18T00:38:10;-4.60;60.80
15298;DHT22;7750;48.796;9.026;2022-12-18T00:43:11;-4.60;61.20
15298;DHT22;7750;48.796;9.026;2022-12-18T00:48:11;-4.60;61.30
15298;DHT22;7750;48.796;9.026;2022-12-18T00:53:12;-4.60;61.50
15298;DHT22;7750;48.796;9.026;2022-12-18T00:58:15;-4.60;61.90
15298;DHT22;7750;48.796;9.026;2022-12-18T01:03:15;-4.50;62.50
15298;DHT22;7750;48.796;9.026;2022-12-18T07:11:04;-4.30;65.50
15298;DHT22;7750;48.796;9.026;2022-12-18T07:16:24;-4.30;65.60
15298;DHT22;7750;48.796;9.026;2022-12-18T07:21:25;-4.30;65.80
15298;DHT22;7750;48.796;9.026;2022-12-18T07:26:25;-4.30;66.00
15298;DHT22;7750;48.796;9.026;2022-12-18T07:31:26;-4.30;66.40
15298;DHT22;7750;48.796;9.026;2022-12-18T07:36:27;-4.20;66.90
15298;DHT22;7750;48.796;9.026;2022-12-18T07:41:28;-4.20;67.00
15298;DHT22;7750;48.796;9.026;2022-12-18T07:46:28;-4.10;67.00
15298;DHT22;7750;48.796;9.026;2022-12-18T07:51:29;-4.00;67.50
15298;DHT22;7750;48.796;9.026;2022-12-18T07:56:30;-3.90;67.90
15298;DHT22;7750;48.796;9.026;2022-12-18T08:01:30;-3.80;68.10
15298;DHT22;7750;48.796;9.026;2022-12-18T08:06:31;-3.70;68.30
15298;DHT22;7750;48.796;9.026;2022-12-18T08:11:32;-3.70;68.20
15298;DHT22;7750;48.796;9.026;2022-12-18T08:16:33;-3.50;68.60
15298;DHT22;7750;48.796;9.026;2022-12-18T08:21:33;-3.40;68.90
15298;DHT22;7750;48.796;9.026;2022-12-18T08:26:40;-3.30;69.20
15298;DHT22;7750;48.796;9.026;2022-12-18T08:31:41;-3.20;69.90
15298;DHT22;7750;48.796;9.026;2022-12-18T08:36:42;-3.00;69.60
15298;DHT22;7750;48.796;9.026;2022-12-18T08:41:42;-2.90;70.30
15298;DHT22;7750;48.796;9.026;2022-12-18T08:47:04;-2.80;69.60
15298;DHT22;7750;48.796;9.026;2022-12-18T08:52:05;-2.70;69.70
15298;DHT22;7750;48.796;9.026;2022-12-18T08:57:05;-2.60;69.90
15298;DHT22;7750;48.796;9.026;2022-12-18T09:02:09;-2.50;70.10
15298;DHT22;7750;48.796;9.026;2022-12-18T09:07:10;-2.40;70.60
15298;DHT22;7750;48.796;9.026;2022-12-18T09:12:11;-2.20;71.20
15298;DHT22;7750;48.796;9.026;2022-12-18T09:17:11;-2.10;71.30
15298;DHT22;7750;48.796;9.026;2022-12-18T09:22:12;-1.90;71.80
15298;DHT22;7750;48.796;9.026;2022-12-18T09:27:12;-1.60;72.10
15298;DHT22;7750;48.796;9.026;2022-12-18T09:32:14;-1.40;71.90
15298;DHT22;7750;48.796;9.026;2022-12-18T09:37:14;-1.20;71.90
15298;DHT22;7750;48.796;9.026;2022-12-18T09:42:21;-0.80;72.30
15298;DHT22;7750;48.796;9.026;2022-12-18T09:47:23;-0.60;72.40
15298;DHT22;7750;48.796;9.026;2022-12-18T09:52:30;-0.40;72.00
15298;DHT22;7750;48.796;9.026;2022-12-18T09:57:35;-0.10;72.00
15298;DHT22;7750;48.796;9.026;2022-12-18T10:02:37;0.10;71.80
15298;DHT22;7750;48.796;9.026;2022-12-18T10:07:49;1.20;69.70
15298;DHT22;7750;48.796;9.026;2022-12-18T10:18:32;1.20;69.70
15298;DHT22;7750;48.796;9.026;2022-12-18T10:23:45;1.20;69.50
15298;DHT22;7750;48.796;9.026;2022-12-18T10:28:49;1.30;69.00
15298;DHT22;7750;48.796;9.026;2022-12-18T10:33:53;1.30;69.30
15298;DHT22;7750;48.796;9.026;2022-12-18T10:39:16;1.50;69.50
15298;DHT22;7750;48.796;9.026;2022-12-18T10:44:26;1.60;69.20
15298;DHT22;7750;48.796;9.026;2022-12-18T10:49:30;1.80;69.30
15298;DHT22;7750;48.796;9.026;2022-12-18T10:54:32;2.00;69.30
15298;DHT22;7750;48.796;9.026;2022-12-18T10:59:50;2.20;69.10
15298;DHT22;7750;48.796;9.026;2022-12-18T11:04:52;2.40;68.40
15298;DHT22;7750;48.796;9.026;2022-12-18T11:10:05;2.50;68.30
15298;DHT22;7750;48.796;9.026;2022-12-18T11:15:13;2.70;68.30
15298;DHT22;7750;48.796;9.026;2022-12-18T11:20:32;3.10;69.70
15298;DHT22;7750;48.796;9.026;2022-12-18T11:25:34;3.70;69.30
15298;DHT22;7750;48.796;9.026;2022-12-18T11:30:36;4.10;68.90
15298;DHT22;7750;48.796;9.026;2022-12-18T11:35:56;4.60;69.50
15298;DHT22;7750;48.796;9.026;2022-12-18T11:46:11;5.40;67.40
15298;DHT22;7750;48.796;9.026;2022-12-18T11:51:26;5.80;66.50
15298;DHT22;7750;48.796;9.026;2022-12-18T11:56:32;6.10;65.20
15298;DHT22;7750;48.796;9.026;2022-12-18T12:17:20;6.80;60.00
15298;DHT22;7750;48.796;9.026;2022-12-18T12:38:28;6.50;60.30
15298;DHT22;7750;48.796;9.026;2022-12-18T12:43:43;6.40;60.50
15298;DHT22;7750;48.796;9.026;2022-12-18T12:48:56;6.30;60.20
15298;DHT22;7750;48.796;9.026;2022-12-18T12:53:58;6.30;60.40
15298;DHT22;7750;48.796;9.026;2022-12-18T13:04:45;6.20;59.60
15298;DHT22;7750;48.796;9.026;2022-12-18T13:15:46;6.30;59.80
15298;DHT22;7750;48.796;9.026;2022-12-18T13:25:56;6.20;59.80
15298;DHT22;7750;48.796;9.026;2022-12-18T13:30:57;6.20;60.10
15298;DHT22;7750;48.796;9.026;2022-12-18T13:41:28;6.20;59.80
15298;DHT22;7750;48.796;9.026;2022-12-18T13:46:44;6.20;59.80
15298;DHT22;7750;48.796;9.026;2022-12-18T13:51:50;6.20;59.90
15298;DHT22;7750;48.796;9.026;2022-12-18T13:56:52;6.10;59.90
15298;DHT22;7750;48.796;9.026;2022-12-18T14:02:04;6.10;59.70
15298;DHT22;7750;48.796;9.026;2022-12-18T14:07:17;6.00;59.40
15298;DHT22;7750;48.796;9.026;2022-12-18T14:12:25;5.90;59.60
15298;DHT22;7750;48.796;9.026;2022-12-18T14:17:45;5.80;59.80
15298;DHT22;7750;48.796;9.026;2022-12-18T14:22:47;5.60;59.80
15298;DHT22;7750;48.796;9.026;2022-12-18T14:27:52;5.50;60.00
15298;DHT22;7750;48.796;9.026;2022-12-18T14:43:11;5.20;59.80
15298;DHT22;7750;48.796;9.026;2022-12-18T14:53:44;4.90;60.00
15298;DHT22;7750;48.796;9.026;2022-12-18T14:59:19;4.70;59.80
15298;DHT22;7750;48.796;9.026;2022-12-18T15:04:33;4.60;59.90
15298;DHT22;7750;48.796;9.026;2022-12-18T15:09:38;4.40;60.20
15298;DHT22;7750;48.796;9.026;2022-12-18T15:14:41;4.20;60.30
15298;DHT22;7750;48.796;9.026;2022-12-18T15:19:43;4.10;60.40
15298;DHT22;7750;48.796;9.026;2022-12-18T15:24:44;4.00;60.40
15298;DHT22;7750;48.796;9.026;2022-12-18T15:30:44;3.80;60.20
15298;DHT22;7750;48.796;9.026;2022-12-18T15:35:22;3.60;60.20
15298;DHT22;7750;48.796;9.026;2022-12-18T15:40:23;3.50;60.50
15298;DHT22;7750;48.796;9.026;2022-12-18T15:45:24;3.40;60.70
15298;DHT22;7750;48.796;9.026;2022-12-18T15:50:25;3.30;60.80
15298;DHT22;7750;48.796;9.026;2022-12-18T15:55:26;3.10;60.80
15298;DHT22;7750;48.796;9.026;2022-12-18T16:00:45;3.10;60.90
15298;DHT22;7750;48.796;9.026;2022-12-18T16:05:52;2.90;61.20
15298;DHT22;7750;48.796;9.026;2022-12-18T16:11:30;3.10;61.80
15298;DHT22;7750;48.796;9.026;2022-12-18T16:22:20;2.70;61.70
15298;DHT22;7750;48.796;9.026;2022-12-18T16:37:42;2.50;62.20
15298;DHT22;7750;48.796;9.026;2022-12-18T16:48:39;2.40;62.60
15298;DHT22;7750;48.796;9.026;2022-12-18T16:53:40;2.30;62.80
15298;DHT22;7750;48.796;9.026;2022-12-18T17:28:41;2.10;63.90
15298;DHT22;7750;48.796;9.026;2022-12-18T17:40:00;2.20;64.70
15298;DHT22;7750;48.796;9.026;2022-12-18T17:45:23;2.10;64.50
15298;DHT22;7750;48.796;9.026;2022-12-18T17:50:34;2.10;64.50
15298;DHT22;7750;48.796;9.026;2022-12-18T17:55:41;2.10;64.80
15298;DHT22;7750;48.796;9.026;2022-12-18T18:16:16;2.10;65.50
15298;DHT22;7750;48.796;9.026;2022-12-18T18:21:17;2.10;65.80
15298;DHT22;7750;48.796;9.026;2022-12-18T18:26:20;2.10;65.80
15298;DHT22;7750;48.796;9.026;2022-12-18T18:31:32;2.10;65.80
15298;DHT22;7750;48.796;9.026;2022-12-18T18:36:34;2.10;66.10
15298;DHT22;7750;48.796;9.026;2022-12-18T18:41:55;2.10;66.20
15298;DHT22;7750;48.796;9.026;2022-12-18T18:47:30;2.20;66.60
15298;DHT22;7750;48.796;9.026;2022-12-18T18:52:41;2.10;66.20
15298;DHT22;7750;48.796;9.026;2022-12-18T19:02:53;2.10;67.20
15298;DHT22;7750;48.796;9.026;2022-12-18T19:07:54;2.10;66.80
15298;DHT22;7750;48.796;9.026;2022-12-18T19:12:55;2.10;67.00
15298;DHT22;7750;48.796;9.026;2022-12-18T19:18:14;2.20;67.20
15298;DHT22;7750;48.796;9.026;2022-12-18T19:23:15;2.20;67.10
15298;DHT22;7750;48.796;9.026;2022-12-18T19:28:21;2.20;67.10
15298;DHT22;7750;48.796;9.026;2022-12-18T19:33:27;2.30;67.50
15298;DHT22;7750;48.796;9.026;2022-12-18T19:38:28;2.20;67.60
15298;DHT22;7750;48.796;9.026;2022-12-18T19:43:38;2.30;67.50
15298;DHT22;7750;48.796;9.026;2022-12-18T19:48:39;2.30;67.90
15298;DHT22;7750;48.796;9.026;2022-12-18T19:53:39;2.30;67.90
15298;DHT22;7750;48.796;9.026;2022-12-18T19:58:40;2.30;67.90
15298;DHT22;7750;48.796;9.026;2022-12-18T20:03:44;2.20;68.10
15298;DHT22;7750;48.796;9.026;2022-12-18T20:08:45;2.30;68.20
15298;DHT22;7750;48.796;9.026;2022-12-18T20:13:46;2.30;68.70
15298;DHT22;7750;48.796;9.026;2022-12-18T20:18:49;2.30;68.20
15298;DHT22;7750;48.796;9.026;2022-12-18T20:23:50;2.40;68.60
15298;DHT22;7750;48.796;9.026;2022-12-18T20:28:58;2.40;68.20
15298;DHT22;7750;48.796;9.026;2022-12-18T20:34:28;2.40;68.40
15298;DHT22;7750;48.796;9.026;2022-12-18T20:39:39;2.50;68.60
15298;DHT22;7750;48.796;9.026;2022-12-18T20:44:42;2.40;68.40
15298;DHT22;7750;48.796;9.026;2022-12-18T20:49:48;2.50;68.50
15298;DHT22;7750;48.796;9.026;2022-12-18T20:54:49;2.50;68.60
15298;DHT22;7750;48.796;9.026;2022-12-18T20:59:50;2.50;68.30
15298;DHT22;7750;48.796;9.026;2022-12-18T21:04:51;2.60;68.60
15298;DHT22;7750;48.796;9.026;2022-12-18T21:10:16;2.60;68.50
15298;DHT22;7750;48.796;9.026;2022-12-18T21:15:36;2.70;68.60
15298;DHT22;7750;48.796;9.026;2022-12-18T21:20:37;2.70;68.60
15298;DHT22;7750;48.796;9.026;2022-12-18T21:25:37;2.70;68.30
15298;DHT22;7750;48.796;9.026;2022-12-18T21:30:38;2.70;68.70
15298;DHT22;7750;48.796;9.026;2022-12-18T21:35:39;2.60;68.60
15298;DHT22;7750;48.796;9.026;2022-12-18T21:40:39;2.60;68.70
15298;DHT22;7750;48.796;9.026;2022-12-18T21:45:40;2.60;69.10
15298;DHT22;7750;48.796;9.026;2022-12-18T21:50:41;2.60;69.10
15298;DHT22;7750;48.796;9.026;2022-12-18T21:55:41;2.60;69.10
15298;DHT22;7750;48.796;9.026;2022-12-18T22:00:42;2.70;69.30
15298;DHT22;7750;48.796;9.026;2022-12-18T22:05:44;2.70;69.20
15298;DHT22;7750;48.796;9.026;2022-12-18T22:10:44;2.80;69.30
15298;DHT22;7750;48.796;9.026;2022-12-18T22:15:45;2.80;68.90
15298;DHT22;7750;48.796;9.026;2022-12-18T22:20:46;2.90;68.90
15298;DHT22;7750;48.796;9.026;2022-12-18T22:25:47;3.00;69.00
15298;DHT22;7750;48.796;9.026;2022-12-18T22:30:47;3.00;68.80
15298;DHT22;7750;48.796;9.026;2022-12-18T22:35:48;3.10;68.90
15298;DHT22;7750;48.796;9.026;2022-12-18T22:40:49;3.20;68.70
15298;DHT22;7750;48.796;9.026;2022-12-18T22:46:04;3.30;68.90
15298;DHT22;7750;48.796;9.026;2022-12-18T22:51:05;3.40;68.90
15298;DHT22;7750;48.796;9.026;2022-12-18T22:56:06;3.40;68.80
15298;DHT22;7750;48.796;9.026;2022-12-18T23:01:13;3.40;68.80
15298;DHT22;7750;48.796;9.026;2022-12-18T23:06:15;3.50;68.90
15298;DHT22;7750;48.796;9.026;2022-12-18T23:11:17;3.50;68.90
15298;DHT22;7750;48.796;9.026;2022-12-18T23:16:19;3.60;68.80
15298;DHT22;7750;48.796;9.026;2022-12-18T23:21:21;3.60;68.90
15298;DHT22;7750;48.796;9.026;2022-12-18T23:26:23;3.70;68.80
15298;DHT22;7750;48.796;9.026;2022-12-18T23:31:27;3.70;68.80
15298;DHT22;7750;48.796;9.026;2022-12-18T23:36:29;3.80;68.70
15298;DHT22;7750;48.796;9.026;2022-12-18T23:41:30;3.90;68.70
15298;DHT22;7750;48.796;9.026;2022-12-18T23:46:33;3.90;68.70
15298;DHT22;7750;48.796;9.026;2022-12-18T23:51:37;4.00;68.70
15298;DHT22;7750;48.796;9.026;2022-12-18T23:56:41;4.10;68.60
